createdAt,value
2023-03-13T00:02:04.158Z,88.20
2023-03-13T00:07:10.279Z,88.10
2023-03-13T00:12:12.750Z,88.10
2023-03-13T00:17:15.111Z,88.10
2023-03-13T00:22:19.022Z,88.00
2023-03-13T00:27:21.441Z,87.90
2023-03-13T00:32:24.082Z,87.80
2023-03-13T00:37:28.158Z,87.80
2023-03-13T00:42:30.630Z,87.90
2023-03-13T00:47:33.127Z,87.80
2023-03-13T00:52:37.150Z,87.80
2023-03-13T00:57:39.629Z,87.80
2023-03-13T01:02:42.965Z,87.80
2023-03-13T01:07:46.978Z,87.80
2023-03-13T01:12:49.474Z,87.80
2023-03-13T01:17:51.889Z,87.80
2023-03-13T01:22:55.887Z,87.90
2023-03-13T01:27:58.740Z,88.10
2023-03-13T01:33:01.188Z,88.10
2023-03-13T01:38:05.334Z,88.40
2023-03-13T01:43:26.589Z,88.90
2023-03-13T01:48:39.346Z,89.20
2023-03-13T01:53:47.636Z,89.20
2023-03-13T01:58:52.999Z,89.20
2023-03-13T02:03:58.073Z,89.20
2023-03-13T02:09:05.463Z,89.30
2023-03-13T02:14:08.233Z,89.30
2023-03-13T02:19:19.354Z,89.50
2023-03-13T02:24:33.399Z,90.00
2023-03-13T02:29:37.369Z,90.00
2023-03-13T02:34:42.524Z,90.00
2023-03-13T02:39:48.358Z,90.10
2023-03-13T02:44:52.473Z,90.10
2023-03-13T02:49:54.760Z,90.10
2023-03-13T02:55:01.633Z,90.10
2023-03-13T03:00:07.847Z,90.10
2023-03-13T03:05:11.653Z,90.30
2023-03-13T03:10:14.106Z,90.40
2023-03-13T03:15:20.846Z,90.50
2023-03-13T03:20:23.285Z,90.60
2023-03-13T03:25:25.714Z,90.70
2023-03-13T03:30:29.835Z,90.80
2023-03-13T03:35:32.353Z,91.00
2023-03-13T03:40:34.718Z,91.10
2023-03-13T03:45:38.684Z,91.00
2023-03-13T03:50:41.150Z,91.10
2023-03-13T03:55:43.447Z,91.20
2023-03-13T04:00:48.733Z,91.30
2023-03-13T04:05:51.253Z,91.40
2023-03-13T04:10:53.668Z,91.60
2023-03-13T04:15:57.533Z,92.00
2023-03-13T04:21:05.400Z,91.80
2023-03-13T04:26:07.820Z,91.80
2023-03-13T04:31:12.033Z,92.00
2023-03-13T04:36:14.604Z,92.10
2023-03-13T04:41:17.162Z,92.10
2023-03-13T04:46:21.233Z,92.00
2023-03-13T04:51:23.529Z,92.20
2023-03-13T04:56:42.374Z,92.30
2023-03-13T05:01:47.240Z,92.30
2023-03-13T05:06:49.534Z,92.50
2023-03-13T05:11:51.752Z,92.40
2023-03-13T05:16:55.604Z,92.60
2023-03-13T05:21:57.933Z,92.50
2023-03-13T05:27:00.242Z,92.70
2023-03-13T05:32:03.978Z,92.60
2023-03-13T05:37:06.690Z,92.70
2023-03-13T05:42:09.324Z,92.80
2023-03-13T05:47:14.389Z,92.80
2023-03-13T05:52:16.745Z,92.80
2023-03-13T05:57:19.099Z,92.80
2023-03-13T06:02:23.134Z,92.80
2023-03-13T06:07:26.937Z,92.70
2023-03-13T06:12:32.099Z,92.70
2023-03-13T06:17:36.094Z,92.80
2023-03-13T06:22:38.440Z,92.80
2023-03-13T06:27:41.703Z,92.80
2023-03-13T06:32:45.994Z,92.70
2023-03-13T06:37:48.560Z,92.80
2023-03-13T06:42:50.949Z,92.60
2023-03-13T06:47:55.616Z,92.60
2023-03-13T06:52:58.039Z,92.80
2023-03-13T06:58:00.424Z,92.90
2023-03-13T07:03:04.536Z,92.90
2023-03-13T07:08:07.219Z,93.00
2023-03-13T07:13:09.675Z,93.00
2023-03-13T07:18:13.805Z,93.20
2023-03-13T07:23:16.401Z,93.20
2023-03-13T07:28:18.874Z,93.20
2023-03-13T07:33:22.720Z,93.60
2023-03-13T07:38:25.347Z,93.70
2023-03-13T07:43:27.907Z,93.40
2023-03-13T07:48:34.056Z,93.30
2023-03-13T07:53:36.643Z,93.30
2023-03-13T07:58:41.306Z,93.30
2023-03-13T08:03:46.418Z,93.10
2023-03-13T08:08:49.228Z,93.10
2023-03-13T08:13:52.208Z,93.00
2023-03-13T08:18:58.662Z,93.00
2023-03-13T08:24:06.826Z,93.00
2023-03-13T08:29:11.822Z,93.00
2023-03-13T08:34:17.341Z,93.00
2023-03-13T08:39:22.455Z,93.00
2023-03-13T08:44:24.939Z,93.00
2023-03-13T08:49:28.851Z,93.00
2023-03-13T08:54:31.316Z,93.00
2023-03-13T08:59:33.759Z,92.90
2023-03-13T09:04:38.133Z,92.90
2023-03-13T09:09:40.556Z,93.00
2023-03-13T09:14:42.906Z,93.00
2023-03-13T09:19:59.433Z,93.60
2023-03-13T09:25:03.417Z,94.10
2023-03-13T09:30:07.391Z,93.20
2023-03-13T09:35:11.707Z,92.20
2023-03-13T09:40:17.257Z,92.00
2023-03-13T09:45:27.790Z,91.80
2023-03-13T09:50:34.917Z,91.50
2023-03-13T09:55:38.568Z,90.90
2023-03-13T10:00:43.821Z,90.50
2023-03-13T10:05:52.047Z,90.10
2023-03-13T10:11:01.189Z,90.00
2023-03-13T10:16:08.324Z,90.20
2023-03-13T10:21:18.142Z,90.30
2023-03-13T10:26:27.521Z,90.40
2023-03-13T10:31:33.385Z,90.90
2023-03-13T10:36:43.290Z,91.20
2023-03-13T10:41:48.825Z,90.80
2023-03-13T10:46:52.076Z,90.80
2023-03-13T10:52:01.180Z,90.50
2023-03-13T10:57:23.549Z,88.80
2023-03-13T11:02:32.464Z,85.70
2023-03-13T11:07:38.392Z,85.70
2023-03-13T11:12:46.023Z,85.20
2023-03-13T11:17:52.756Z,82.50
2023-03-13T11:23:15.811Z,81.30
2023-03-13T11:28:28.943Z,80.70
2023-03-13T11:33:45.025Z,80.90
2023-03-13T11:38:53.389Z,79.10
2023-03-13T11:44:17.355Z,76.70
2023-03-13T11:49:39.652Z,76.40
2023-03-13T11:55:13.007Z,76.70
2023-03-13T12:00:29.291Z,76.60
2023-03-13T12:05:41.868Z,76.70
2023-03-13T12:10:52.627Z,77.00
2023-03-13T12:15:57.827Z,76.30
2023-03-13T12:21:05.636Z,75.80
2023-03-13T12:26:14.191Z,76.10
2023-03-13T12:31:26.127Z,76.00
2023-03-13T12:36:36.693Z,75.50
2023-03-13T12:41:43.625Z,75.20
2023-03-13T12:46:48.693Z,73.30
2023-03-13T12:52:08.343Z,70.90
2023-03-13T12:57:22.433Z,69.20
2023-03-13T13:02:29.092Z,68.70
2023-03-13T13:07:34.028Z,69.70
2023-03-13T13:12:39.017Z,66.70
2023-03-13T13:17:50.669Z,68.10
2023-03-13T13:22:53.840Z,67.20
2023-03-13T13:28:24.359Z,67.00
2023-03-13T13:33:40.154Z,67.10
2023-03-13T13:38:45.754Z,68.50
2023-03-13T13:44:10.415Z,68.50
2023-03-13T13:49:18.826Z,68.70
2023-03-13T13:54:52.775Z,69.50
2023-03-13T14:00:03.512Z,68.20
2023-03-13T14:05:15.740Z,67.80
2023-03-13T14:10:37.201Z,66.00
2023-03-13T14:15:45.080Z,65.00
2023-03-13T14:21:02.024Z,64.40
2023-03-13T14:26:11.783Z,65.20
2023-03-13T14:31:28.765Z,64.40
2023-03-13T14:36:31.211Z,64.90
2023-03-13T14:41:40.200Z,66.10
2023-03-13T14:46:44.356Z,65.50
2023-03-13T14:51:50.165Z,64.20
2023-03-13T14:57:12.870Z,63.20
2023-03-13T15:02:22.317Z,64.50
2023-03-13T15:07:26.727Z,65.30
2023-03-13T15:12:31.723Z,66.00
2023-03-13T15:17:35.790Z,65.60
2023-03-13T15:22:40.384Z,65.80
2023-03-13T15:27:42.966Z,65.30
2023-03-13T15:32:47.263Z,65.80
2023-03-13T15:37:50.379Z,65.90
2023-03-13T15:42:53.216Z,65.60
2023-03-13T15:47:57.157Z,65.70
2023-03-13T15:53:52.264Z,65.40
2023-03-13T15:59:19.311Z,64.50
2023-03-13T16:04:38.437Z,64.40
2023-03-13T16:09:49.120Z,65.10
2023-03-13T16:14:53.631Z,65.20
2023-03-13T16:20:00.224Z,65.80
2023-03-13T16:25:09.639Z,66.80
2023-03-13T16:30:51.188Z,65.80
2023-03-13T16:42:27.116Z,65.80
2023-03-13T16:47:41.184Z,64.60
2023-03-13T16:52:44.744Z,65.10
2023-03-13T17:04:15.582Z,66.10
2023-03-13T17:09:27.784Z,66.20
2023-03-13T17:15:17.111Z,66.90
2023-03-13T17:21:06.110Z,67.20
2023-03-13T17:26:50.102Z,67.60
2023-03-13T17:32:07.051Z,67.90
2023-03-13T17:37:22.491Z,68.30
2023-03-13T17:42:35.605Z,68.60
2023-03-13T17:47:56.314Z,68.90
2023-03-13T17:53:01.296Z,69.20
2023-03-13T17:58:03.560Z,69.50
2023-03-13T18:03:07.059Z,69.70
2023-03-13T18:08:11.353Z,69.80
2023-03-13T18:13:13.522Z,70.30
2023-03-13T18:18:17.477Z,70.20
2023-03-13T18:23:19.623Z,70.30
2023-03-13T18:28:21.727Z,70.40
2023-03-13T18:33:25.258Z,70.60
2023-03-13T18:38:28.713Z,71.00
2023-03-13T18:43:30.920Z,70.90
2023-03-13T18:48:34.430Z,71.10
2023-03-13T18:53:36.538Z,71.10
2023-03-13T18:58:38.703Z,71.20
2023-03-13T19:03:42.673Z,71.40
2023-03-13T19:08:45.343Z,71.70
2023-03-13T19:13:47.839Z,71.90
2023-03-13T19:18:52.027Z,72.10
2023-03-13T19:23:54.799Z,72.40
2023-03-13T19:28:57.319Z,72.70
2023-03-13T19:34:00.813Z,73.00
2023-03-13T19:39:03.087Z,73.20
2023-03-13T19:44:05.404Z,73.40
2023-03-13T19:49:11.023Z,73.70
2023-03-13T19:54:13.767Z,73.90
2023-03-13T19:59:17.477Z,74.00
2023-03-13T20:04:21.015Z,74.20
2023-03-13T20:09:23.289Z,74.30
2023-03-13T20:14:25.439Z,74.50
2023-03-13T20:19:29.138Z,74.50
2023-03-13T20:24:32.559Z,74.60
2023-03-13T20:29:34.799Z,74.70
2023-03-13T20:34:38.482Z,74.80
2023-03-13T20:39:40.726Z,74.90
2023-03-13T20:44:42.800Z,75.00
2023-03-13T20:49:46.286Z,75.20
2023-03-13T20:54:48.558Z,75.30
2023-03-13T20:59:50.759Z,75.50
2023-03-13T21:04:54.327Z,75.60
2023-03-13T21:09:56.518Z,75.80
2023-03-13T21:14:58.737Z,76.00
2023-03-13T21:20:02.397Z,76.20
2023-03-13T21:25:05.342Z,76.60
2023-03-13T21:30:09.064Z,76.80
2023-03-13T21:35:14.171Z,77.30
2023-03-13T21:40:16.667Z,77.30
2023-03-13T21:45:18.982Z,77.20
2023-03-13T21:50:22.592Z,77.50
2023-03-13T21:55:25.150Z,77.50
2023-03-13T22:00:27.391Z,77.50
2023-03-13T22:05:31.055Z,77.60
2023-03-13T22:10:33.133Z,77.70
2023-03-13T22:15:35.343Z,77.60
2023-03-13T22:20:39.293Z,77.70
2023-03-13T22:25:42.695Z,77.70
2023-03-13T22:30:44.819Z,77.70
2023-03-13T22:35:51.155Z,77.60
2023-03-13T22:40:58.879Z,77.80
2023-03-13T22:46:01.815Z,77.80
2023-03-13T22:51:08.962Z,77.70
2023-03-13T22:56:11.409Z,77.70
2023-03-13T23:01:15.128Z,77.60
2023-03-13T23:06:21.993Z,77.40
2023-03-13T23:11:24.078Z,77.50
2023-03-13T23:16:26.276Z,77.50
2023-03-13T23:21:29.889Z,77.60
2023-03-13T23:26:32.029Z,77.60
2023-03-13T23:31:34.187Z,77.70
2023-03-13T23:36:37.753Z,77.70
2023-03-13T23:41:39.851Z,77.70
2023-03-13T23:46:41.917Z,77.60
2023-03-13T23:51:45.512Z,77.60
2023-03-13T23:56:47.606Z,77.70
